sensor_id;sensor_type;location;lat;lon;timestamp;noise_LAeq;noise_LA_min;noise_LA_max;noise_LA01;noise_LA95
45964;Laerm;31671;48.092;11.842;2022-10-17T00:02:11;28.97;27.62;31.00;;
45964;Laerm;31671;48.092;11.842;2022-10-17T00:04:36;28.99;27.71;36.00;;
45964;Laerm;31671;48.092;11.842;2022-10-17T00:07:02;29.23;27.56;37.70;;
45964;Laerm;31671;48.092;11.842;2022-10-17T00:09:28;47.03;27.67;83.16;;
45964;Laerm;31671;48.092;11.842;2022-10-17T00:11:53;28.84;27.52;34.06;;
45964;Laerm;31671;48.092;11.842;2022-10-17T00:14:19;28.71;27.42;30.00;;
45964;Laerm;31671;48.092;11.842;2022-10-17T00:16:45;28.69;27.22;32.20;;
45964;Laerm;31671;48.092;11.842;2022-10-17T00:19:10;45.47;27.80;71.67;;
45964;Laerm;31671;48.092;11.842;2022-10-17T00:21:36;34.39;28.13;44.23;;
45964;Laerm;31671;48.092;11.842;2022-10-17T00:24:02;33.02;28.03;43.26;;
45964;Laerm;31671;48.092;11.842;2022-10-17T00:26:28;30.98;27.75;39.60;;
45964;Laerm;31671;48.092;11.842;2022-10-17T00:28:53;30.60;27.46;43.43;;
45964;Laerm;31671;48.092;11.842;2022-10-17T00:31:20;29.83;27.18;44.88;;
45964;Laerm;31671;48.092;11.842;2022-10-17T00:33:46;28.73;27.32;29.92;;
45964;Laerm;31671;48.092;11.842;2022-10-17T00:36:18;29.07;27.44;32.05;;
45964;Laerm;31671;48.092;11.842;2022-10-17T00:38:45;28.82;27.39;29.99;;
45964;Laerm;31671;48.092;11.842;2022-10-17T00:41:12;29.22;27.57;34.51;;
45964;Laerm;31671;48.092;11.842;2022-10-17T00:46:16;29.32;27.54;33.22;;
45964;Laerm;31671;48.092;11.842;2022-10-17T00:48:41;28.87;27.31;30.11;;
45964;Laerm;31671;48.092;11.842;2022-10-17T00:51:07;28.89;27.36;30.21;;
45964;Laerm;31671;48.092;11.842;2022-10-17T00:53:33;28.83;27.48;30.11;;
45964;Laerm;31671;48.092;11.842;2022-10-17T00:55:59;28.85;27.39;29.98;;
45964;Laerm;31671;48.092;11.842;2022-10-17T00:58:25;28.89;27.64;30.38;;
45964;Laerm;31671;48.092;11.842;2022-10-17T01:00:51;28.84;27.51;30.09;;
45964;Laerm;31671;48.092;11.842;2022-10-17T01:03:17;28.89;27.26;51.06;;
45964;Laerm;31671;48.092;11.842;2022-10-17T01:05:42;28.71;27.27;30.05;;
45964;Laerm;31671;48.092;11.842;2022-10-17T01:08:08;28.62;27.29;29.85;;
45964;Laerm;31671;48.092;11.842;2022-10-17T01:10:44;28.66;27.38;29.88;;
45964;Laerm;31671;48.092;11.842;2022-10-17T01:13:21;28.66;26.89;29.75;;
45964;Laerm;31671;48.092;11.842;2022-10-17T01:31:06;29.65;27.76;34.85;;
45964;Laerm;31671;48.092;11.842;2022-10-17T01:36:10;29.54;27.74;34.77;;
45964;Laerm;31671;48.092;11.842;2022-10-17T01:38:42;29.24;27.65;40.07;;
45964;Laerm;31671;48.092;11.842;2022-10-17T01:43:40;29.62;27.44;52.76;;
45964;Laerm;31671;48.092;11.842;2022-10-17T01:46:21;28.83;27.33;30.87;;
45964;Laerm;31671;48.092;11.842;2022-10-17T01:48:49;29.25;27.46;36.66;;
45964;Laerm;31671;48.092;11.842;2022-10-17T01:51:16;28.81;27.11;48.90;;
45964;Laerm;31671;48.092;11.842;2022-10-17T01:54:04;38.48;27.27;74.20;;
45964;Laerm;31671;48.092;11.842;2022-10-17T01:56:33;28.68;27.23;40.80;;
45964;Laerm;31671;48.092;11.842;2022-10-17T01:59:02;30.51;27.40;61.99;;
45964;Laerm;31671;48.092;11.842;2022-10-17T02:01:30;28.73;27.47;30.07;;
45964;Laerm;31671;48.092;11.842;2022-10-17T02:03:58;29.66;27.45;50.14;;
45964;Laerm;31671;48.092;11.842;2022-10-17T02:06:26;28.87;27.39;32.26;;
45964;Laerm;31671;48.092;11.842;2022-10-17T02:08:52;29.71;27.52;36.24;;
45964;Laerm;31671;48.092;11.842;2022-10-17T02:11:20;28.78;27.21;30.12;;
45964;Laerm;31671;48.092;11.842;2022-10-17T02:21:21;28.78;27.47;30.14;;
45964;Laerm;31671;48.092;11.842;2022-10-17T02:23:51;28.80;27.35;31.02;;
45964;Laerm;31671;48.092;11.842;2022-10-17T02:31:27;28.84;27.41;30.24;;
45964;Laerm;31671;48.092;11.842;2022-10-17T02:33:55;28.84;27.31;30.18;;
45964;Laerm;31671;48.092;11.842;2022-10-17T02:36:25;28.98;27.40;31.72;;
45964;Laerm;31671;48.092;11.842;2022-10-17T02:38:53;28.86;27.44;30.45;;
45964;Laerm;31671;48.092;11.842;2022-10-17T02:41:19;28.85;27.48;30.50;;
45964;Laerm;31671;48.092;11.842;2022-10-17T02:43:47;28.75;27.38;34.94;;
45964;Laerm;31671;48.092;11.842;2022-10-17T02:46:14;28.74;27.37;30.05;;
45964;Laerm;31671;48.092;11.842;2022-10-17T02:48:41;28.80;27.37;30.27;;
45964;Laerm;31671;48.092;11.842;2022-10-17T02:51:14;29.81;27.35;55.58;;
45964;Laerm;31671;48.092;11.842;2022-10-17T02:53:56;28.94;27.46;37.86;;
45964;Laerm;31671;48.092;11.842;2022-10-17T02:56:25;54.99;27.42;90.64;;
45964;Laerm;31671;48.092;11.842;2022-10-17T02:58:53;28.88;27.60;30.49;;
45964;Laerm;31671;48.092;11.842;2022-10-17T03:01:21;29.50;27.61;39.69;;
45964;Laerm;31671;48.092;11.842;2022-10-17T03:03:47;29.54;27.53;37.03;;
45964;Laerm;31671;48.092;11.842;2022-10-17T03:06:13;29.26;27.60;32.43;;
45964;Laerm;31671;48.092;11.842;2022-10-17T03:08:38;31.18;27.57;51.03;;
45964;Laerm;31671;48.092;11.842;2022-10-17T03:11:04;29.11;27.46;34.49;;
45964;Laerm;31671;48.092;11.842;2022-10-17T03:13:31;29.23;27.56;36.22;;
45964;Laerm;31671;48.092;11.842;2022-10-17T03:15:57;29.14;27.55;37.33;;
45964;Laerm;31671;48.092;11.842;2022-10-17T03:18:22;29.02;27.47;33.72;;
45964;Laerm;31671;48.092;11.842;2022-10-17T03:20:50;30.35;27.27;53.70;;
45964;Laerm;31671;48.092;11.842;2022-10-17T03:23:16;38.16;27.55;61.90;;
45964;Laerm;31671;48.092;11.842;2022-10-17T03:25:41;40.92;27.54;62.93;;
45964;Laerm;31671;48.092;11.842;2022-10-17T03:28:08;31.20;27.53;61.88;;
45964;Laerm;31671;48.092;11.842;2022-10-17T03:30:33;28.91;27.69;30.15;;
45964;Laerm;31671;48.092;11.842;2022-10-17T03:32:59;29.06;27.62;31.87;;
45964;Laerm;31671;48.092;11.842;2022-10-17T03:35:26;29.46;27.53;33.81;;
45964;Laerm;31671;48.092;11.842;2022-10-17T03:37:51;29.48;27.59;34.03;;
45964;Laerm;31671;48.092;11.842;2022-10-17T03:40:20;29.03;27.63;30.83;;
45964;Laerm;31671;48.092;11.842;2022-10-17T03:42:46;29.00;27.46;30.70;;
45964;Laerm;31671;48.092;11.842;2022-10-17T03:45:12;29.07;27.52;30.84;;
45964;Laerm;31671;48.092;11.842;2022-10-17T03:47:38;28.99;27.43;30.29;;
45964;Laerm;31671;48.092;11.842;2022-10-17T03:50:03;29.02;27.52;30.72;;
45964;Laerm;31671;48.092;11.842;2022-10-17T03:52:32;29.09;27.83;30.63;;
45964;Laerm;31671;48.092;11.842;2022-10-17T03:54:58;29.25;27.78;30.87;;
45964;Laerm;31671;48.092;11.842;2022-10-17T03:57:24;29.24;27.76;31.97;;
45964;Laerm;31671;48.092;11.842;2022-10-17T03:59:50;29.19;27.53;32.26;;
45964;Laerm;31671;48.092;11.842;2022-10-17T04:02:18;29.75;27.49;36.06;;
45964;Laerm;31671;48.092;11.842;2022-10-17T04:04:44;29.18;27.74;31.24;;
45964;Laerm;31671;48.092;11.842;2022-10-17T04:07:10;29.31;27.79;33.35;;
45964;Laerm;31671;48.092;11.842;2022-10-17T04:09:39;29.37;27.71;32.34;;
45964;Laerm;31671;48.092;11.842;2022-10-17T04:12:15;29.16;27.54;32.60;;
45964;Laerm;31671;48.092;11.842;2022-10-17T04:14:41;29.06;27.66;31.41;;
45964;Laerm;31671;48.092;11.842;2022-10-17T04:17:07;29.73;27.57;34.22;;
45964;Laerm;31671;48.092;11.842;2022-10-17T04:19:34;29.13;27.74;31.58;;
45964;Laerm;31671;48.092;11.842;2022-10-17T04:22:00;29.01;27.62;30.82;;
45964;Laerm;31671;48.092;11.842;2022-10-17T04:24:27;29.20;27.73;32.20;;
45964;Laerm;31671;48.092;11.842;2022-10-17T04:26:53;29.07;27.65;31.07;;
45964;Laerm;31671;48.092;11.842;2022-10-17T04:29:21;28.93;27.49;30.26;;
45964;Laerm;31671;48.092;11.842;2022-10-17T04:31:49;29.15;27.80;36.38;;
45964;Laerm;31671;48.092;11.842;2022-10-17T04:34:19;29.01;27.60;31.89;;
45964;Laerm;31671;48.092;11.842;2022-10-17T04:36:45;29.20;27.63;38.60;;
45964;Laerm;31671;48.092;11.842;2022-10-17T04:39:11;29.11;27.44;31.29;;
45964;Laerm;31671;48.092;11.842;2022-10-17T04:41:37;29.24;27.82;34.85;;
45964;Laerm;31671;48.092;11.842;2022-10-17T04:44:03;29.59;27.57;33.90;;
45964;Laerm;31671;48.092;11.842;2022-10-17T04:46:32;29.31;27.68;45.32;;
45964;Laerm;31671;48.092;11.842;2022-10-17T04:48:58;29.38;27.71;33.47;;
45964;Laerm;31671;48.092;11.842;2022-10-17T04:51:23;29.07;27.55;30.76;;
45964;Laerm;31671;48.092;11.842;2022-10-17T04:54:09;29.18;27.83;31.39;;
45964;Laerm;31671;48.092;11.842;2022-10-17T04:56:37;29.08;27.75;30.67;;
45964;Laerm;31671;48.092;11.842;2022-10-17T04:59:03;29.12;27.61;31.71;;
45964;Laerm;31671;48.092;11.842;2022-10-17T05:01:29;29.08;27.54;31.12;;
45964;Laerm;31671;48.092;11.842;2022-10-17T05:03:55;29.29;27.70;31.84;;
45964;Laerm;31671;48.092;11.842;2022-10-17T05:06:22;29.03;27.51;31.77;;
45964;Laerm;31671;48.092;11.842;2022-10-17T05:09:06;28.97;27.27;30.40;;
45964;Laerm;31671;48.092;11.842;2022-10-17T05:11:32;28.99;27.50;30.34;;
45964;Laerm;31671;48.092;11.842;2022-10-17T05:13:59;29.05;27.59;31.47;;
45964;Laerm;31671;48.092;11.842;2022-10-17T05:16:25;29.04;27.61;30.72;;
45964;Laerm;31671;48.092;11.842;2022-10-17T05:18:52;29.04;27.55;30.29;;
45964;Laerm;31671;48.092;11.842;2022-10-17T05:21:18;29.12;27.59;31.50;;
45964;Laerm;31671;48.092;11.842;2022-10-17T05:23:44;29.24;27.77;35.88;;
45964;Laerm;31671;48.092;11.842;2022-10-17T05:26:10;29.12;27.54;35.01;;
45964;Laerm;31671;48.092;11.842;2022-10-17T05:28:36;29.09;27.67;30.68;;
45964;Laerm;31671;48.092;11.842;2022-10-17T05:31:03;29.28;27.92;32.00;;
45964;Laerm;31671;48.092;11.842;2022-10-17T05:33:28;29.14;27.65;30.82;;
45964;Laerm;31671;48.092;11.842;2022-10-17T05:35:54;29.07;27.51;30.74;;
45964;Laerm;31671;48.092;11.842;2022-10-17T05:38:20;29.12;27.62;31.88;;
45964;Laerm;31671;48.092;11.842;2022-10-17T05:40:46;29.14;27.69;30.71;;
45964;Laerm;31671;48.092;11.842;2022-10-17T05:43:12;29.16;27.67;30.66;;
45964;Laerm;31671;48.092;11.842;2022-10-17T05:45:37;30.01;27.55;35.20;;
45964;Laerm;31671;48.092;11.842;2022-10-17T05:48:04;30.83;28.51;36.47;;
45964;Laerm;31671;48.092;11.842;2022-10-17T05:50:29;29.44;27.88;31.58;;
45964;Laerm;31671;48.092;11.842;2022-10-17T05:53:06;29.34;27.88;32.98;;
45964;Laerm;31671;48.092;11.842;2022-10-17T05:55:37;29.53;27.83;37.90;;
45964;Laerm;31671;48.092;11.842;2022-10-17T05:58:02;29.35;27.95;34.86;;
45964;Laerm;31671;48.092;11.842;2022-10-17T06:00:33;29.35;27.86;34.22;;
45964;Laerm;31671;48.092;11.842;2022-10-17T06:02:59;29.38;27.97;34.20;;
45964;Laerm;31671;48.092;11.842;2022-10-17T06:05:25;29.50;27.79;34.33;;
45964;Laerm;31671;48.092;11.842;2022-10-17T06:07:50;29.75;28.06;38.83;;
45964;Laerm;31671;48.092;11.842;2022-10-17T06:10:17;29.40;27.89;32.92;;
45964;Laerm;31671;48.092;11.842;2022-10-17T06:12:43;29.74;28.15;31.26;;
45964;Laerm;31671;48.092;11.842;2022-10-17T06:15:09;30.05;28.18;33.49;;
45964;Laerm;31671;48.092;11.842;2022-10-17T06:17:35;30.38;28.39;33.31;;
45964;Laerm;31671;48.092;11.842;2022-10-17T06:20:01;31.12;28.31;42.02;;
45964;Laerm;31671;48.092;11.842;2022-10-17T06:22:27;29.98;28.50;31.67;;
45964;Laerm;31671;48.092;11.842;2022-10-17T06:24:52;30.15;28.64;34.76;;
45964;Laerm;31671;48.092;11.842;2022-10-17T06:27:18;31.02;28.93;39.50;;
45964;Laerm;31671;48.092;11.842;2022-10-17T06:29:45;30.28;28.83;35.63;;
45964;Laerm;31671;48.092;11.842;2022-10-17T06:32:11;30.36;28.64;33.90;;
45964;Laerm;31671;48.092;11.842;2022-10-17T06:34:37;30.42;28.98;32.39;;
45964;Laerm;31671;48.092;11.842;2022-10-17T06:37:03;30.69;28.87;34.53;;
45964;Laerm;31671;48.092;11.842;2022-10-17T06:42:01;31.46;29.27;36.78;;
45964;Laerm;31671;48.092;11.842;2022-10-17T06:44:45;31.65;28.98;35.50;;
45964;Laerm;31671;48.092;11.842;2022-10-17T06:47:17;31.36;28.58;38.12;;
45964;Laerm;31671;48.092;11.842;2022-10-17T06:49:43;30.31;28.92;35.06;;
45964;Laerm;31671;48.092;11.842;2022-10-17T06:52:18;31.49;29.02;35.01;;
45964;Laerm;31671;48.092;11.842;2022-10-17T06:55:09;30.58;28.83;40.18;;
45964;Laerm;31671;48.092;11.842;2022-10-17T06:57:55;30.47;28.92;34.67;;
45964;Laerm;31671;48.092;11.842;2022-10-17T07:00:43;31.87;28.80;37.02;;
45964;Laerm;31671;48.092;11.842;2022-10-17T07:03:11;31.57;28.79;40.62;;
45964;Laerm;31671;48.092;11.842;2022-10-17T07:05:36;32.40;29.04;35.76;;
45964;Laerm;31671;48.092;11.842;2022-10-17T07:08:03;30.33;28.82;37.03;;
45964;Laerm;31671;48.092;11.842;2022-10-17T07:10:29;30.32;28.81;36.75;;
45964;Laerm;31671;48.092;11.842;2022-10-17T07:12:54;32.95;28.53;39.51;;
45964;Laerm;31671;48.092;11.842;2022-10-17T07:15:20;32.07;28.78;36.89;;
45964;Laerm;31671;48.092;11.842;2022-10-17T07:17:49;31.23;28.59;35.75;;
45964;Laerm;31671;48.092;11.842;2022-10-17T07:20:15;31.68;28.87;40.33;;
45964;Laerm;31671;48.092;11.842;2022-10-17T07:22:41;30.67;28.90;32.52;;
45964;Laerm;31671;48.092;11.842;2022-10-17T07:25:07;31.69;29.15;38.52;;
45964;Laerm;31671;48.092;11.842;2022-10-17T07:27:40;32.06;29.19;37.73;;
45964;Laerm;31671;48.092;11.842;2022-10-17T07:30:06;31.13;29.39;33.79;;
45964;Laerm;31671;48.092;11.842;2022-10-17T07:32:35;30.73;29.41;32.08;;
45964;Laerm;31671;48.092;11.842;2022-10-17T07:35:02;30.60;29.06;32.69;;
45964;Laerm;31671;48.092;11.842;2022-10-17T07:37:28;30.47;29.05;32.05;;
45964;Laerm;31671;48.092;11.842;2022-10-17T07:39:55;30.95;29.01;38.69;;
45964;Laerm;31671;48.092;11.842;2022-10-17T07:42:21;30.54;28.67;33.46;;
45964;Laerm;31671;48.092;11.842;2022-10-17T07:44:46;30.90;28.78;34.59;;
45964;Laerm;31671;48.092;11.842;2022-10-17T07:47:12;30.32;29.12;32.09;;
45964;Laerm;31671;48.092;11.842;2022-10-17T07:49:38;30.83;28.97;35.37;;
45964;Laerm;31671;48.092;11.842;2022-10-17T07:52:04;30.26;28.83;32.11;;
45964;Laerm;31671;48.092;11.842;2022-10-17T07:54:29;30.11;28.82;31.40;;
45964;Laerm;31671;48.092;11.842;2022-10-17T07:56:55;30.22;28.74;32.66;;
45964;Laerm;31671;48.092;11.842;2022-10-17T07:59:21;30.04;28.78;32.31;;
45964;Laerm;31671;48.092;11.842;2022-10-17T08:01:47;30.10;28.63;32.73;;
45964;Laerm;31671;48.092;11.842;2022-10-17T08:04:13;30.07;28.38;35.24;;
45964;Laerm;31671;48.092;11.842;2022-10-17T08:06:38;29.99;28.65;32.37;;
45964;Laerm;31671;48.092;11.842;2022-10-17T08:09:04;29.90;28.61;33.17;;
45964;Laerm;31671;48.092;11.842;2022-10-17T08:11:30;29.91;28.39;39.23;;
45964;Laerm;31671;48.092;11.842;2022-10-17T08:13:55;29.86;28.54;33.99;;
45964;Laerm;31671;48.092;11.842;2022-10-17T08:16:21;29.99;28.69;33.68;;
45964;Laerm;31671;48.092;11.842;2022-10-17T08:18:47;29.83;28.61;34.00;;
45964;Laerm;31671;48.092;11.842;2022-10-17T08:21:12;29.90;28.31;33.35;;
45964;Laerm;31671;48.092;11.842;2022-10-17T08:23:38;30.01;28.46;34.76;;
45964;Laerm;31671;48.092;11.842;2022-10-17T08:26:05;29.72;28.19;34.95;;
45964;Laerm;31671;48.092;11.842;2022-10-17T08:28:33;29.68;28.07;33.02;;
45964;Laerm;31671;48.092;11.842;2022-10-17T08:31:02;29.68;28.13;31.00;;
45964;Laerm;31671;48.092;11.842;2022-10-17T08:33:28;29.62;28.27;32.35;;
45964;Laerm;31671;48.092;11.842;2022-10-17T08:35:56;29.70;28.21;34.32;;
45964;Laerm;31671;48.092;11.842;2022-10-17T08:38:22;29.59;28.40;32.50;;
45964;Laerm;31671;48.092;11.842;2022-10-17T08:40:48;29.54;28.20;33.50;;
45964;Laerm;31671;48.092;11.842;2022-10-17T08:43:25;29.67;28.21;35.57;;
45964;Laerm;31671;48.092;11.842;2022-10-17T08:45:54;29.52;28.21;33.34;;
45964;Laerm;31671;48.092;11.842;2022-10-17T08:48:23;29.68;28.01;32.62;;
45964;Laerm;31671;48.092;11.842;2022-10-17T08:50:51;29.48;28.32;33.64;;
45964;Laerm;31671;48.092;11.842;2022-10-17T08:53:19;29.50;28.19;33.68;;
45964;Laerm;31671;48.092;11.842;2022-10-17T08:55:47;29.59;28.15;32.29;;
45964;Laerm;31671;48.092;11.842;2022-10-17T08:58:13;29.45;28.13;35.55;;
45964;Laerm;31671;48.092;11.842;2022-10-17T09:00:40;29.52;28.11;35.28;;
45964;Laerm;31671;48.092;11.842;2022-10-17T09:03:18;30.57;28.35;46.54;;
45964;Laerm;31671;48.092;11.842;2022-10-17T09:05:49;29.54;28.04;32.93;;
45964;Laerm;31671;48.092;11.842;2022-10-17T09:08:32;29.45;28.20;31.46;;
45964;Laerm;31671;48.092;11.842;2022-10-17T09:13:39;31.71;28.40;38.33;;
45964;Laerm;31671;48.092;11.842;2022-10-17T09:16:10;32.57;28.68;41.34;;
45964;Laerm;31671;48.092;11.842;2022-10-17T09:18:40;31.43;28.92;39.89;;
45964;Laerm;31671;48.092;11.842;2022-10-17T09:21:14;31.15;28.95;38.77;;
45964;Laerm;31671;48.092;11.842;2022-10-17T09:26:10;33.09;29.27;40.48;;
45964;Laerm;31671;48.092;11.842;2022-10-17T09:28:38;31.23;28.50;41.85;;
45964;Laerm;31671;48.092;11.842;2022-10-17T09:31:05;29.52;28.11;36.84;;
45964;Laerm;31671;48.092;11.842;2022-10-17T09:33:41;29.44;28.07;33.39;;
45964;Laerm;31671;48.092;11.842;2022-10-17T09:36:12;29.44;28.23;36.27;;
45964;Laerm;31671;48.092;11.842;2022-10-17T09:38:40;29.46;27.91;32.27;;
45964;Laerm;31671;48.092;11.842;2022-10-17T09:41:12;29.54;28.27;34.64;;
45964;Laerm;31671;48.092;11.842;2022-10-17T09:43:40;29.49;28.17;35.03;;
45964;Laerm;31671;48.092;11.842;2022-10-17T09:46:21;29.44;28.25;32.19;;
45964;Laerm;31671;48.092;11.842;2022-10-17T09:49:04;29.48;28.06;33.17;;
45964;Laerm;31671;48.092;11.842;2022-10-17T09:51:32;29.42;27.94;30.73;;
45964;Laerm;31671;48.092;11.842;2022-10-17T09:53:59;29.47;28.15;31.64;;
45964;Laerm;31671;48.092;11.842;2022-10-17T09:56:25;29.49;28.16;35.80;;
45964;Laerm;31671;48.092;11.842;2022-10-17T09:58:52;29.44;27.91;37.14;;
45964;Laerm;31671;48.092;11.842;2022-10-17T10:01:27;29.65;28.10;32.31;;
45964;Laerm;31671;48.092;11.842;2022-10-17T10:06:38;29.46;28.18;31.51;;
45964;Laerm;31671;48.092;11.842;2022-10-17T10:09:05;29.55;28.14;31.36;;
45964;Laerm;31671;48.092;11.842;2022-10-17T10:14:54;29.47;28.08;39.56;;
45964;Laerm;31671;48.092;11.842;2022-10-17T10:17:01;29.45;28.00;38.48;;
45964;Laerm;31671;48.092;11.842;2022-10-17T10:19:34;29.46;27.82;31.59;;
45964;Laerm;31671;48.092;11.842;2022-10-17T10:22:01;29.44;28.20;39.63;;
45964;Laerm;31671;48.092;11.842;2022-10-17T10:24:28;29.50;28.01;37.18;;
45964;Laerm;31671;48.092;11.842;2022-10-17T10:26:54;29.56;27.96;34.96;;
45964;Laerm;31671;48.092;11.842;2022-10-17T10:29:26;29.46;28.17;35.64;;
45964;Laerm;31671;48.092;11.842;2022-10-17T10:31:52;29.45;28.17;36.11;;
45964;Laerm;31671;48.092;11.842;2022-10-17T10:36:44;29.62;28.04;36.82;;
45964;Laerm;31671;48.092;11.842;2022-10-17T10:42:07;29.40;27.75;35.94;;
45964;Laerm;31671;48.092;11.842;2022-10-17T10:44:33;29.39;27.97;32.32;;
45964;Laerm;31671;48.092;11.842;2022-10-17T10:49:32;29.36;28.19;30.58;;
45964;Laerm;31671;48.092;11.842;2022-10-17T10:51:58;29.48;27.99;38.38;;
45964;Laerm;31671;48.092;11.842;2022-10-17T10:54:26;29.47;28.11;35.42;;
45964;Laerm;31671;48.092;11.842;2022-10-17T10:56:55;29.61;28.05;32.27;;
45964;Laerm;31671;48.092;11.842;2022-10-17T10:59:22;29.70;28.14;39.87;;
45964;Laerm;31671;48.092;11.842;2022-10-17T11:06:54;29.46;28.03;35.00;;
45964;Laerm;31671;48.092;11.842;2022-10-17T11:12:00;29.43;27.95;34.01;;
45964;Laerm;31671;48.092;11.842;2022-10-17T11:22:14;29.29;27.98;30.68;;
45964;Laerm;31671;48.092;11.842;2022-10-17T11:24:45;29.32;27.98;33.87;;
45964;Laerm;31671;48.092;11.842;2022-10-17T11:27:13;29.37;28.05;36.01;;
45964;Laerm;31671;48.092;11.842;2022-10-17T11:29:39;29.88;27.95;40.47;;
45964;Laerm;31671;48.092;11.842;2022-10-17T11:32:20;29.29;28.01;30.92;;
45964;Laerm;31671;48.092;11.842;2022-10-17T11:34:48;29.33;27.90;30.76;;
45964;Laerm;31671;48.092;11.842;2022-10-17T11:37:22;29.30;27.93;33.71;;
45964;Laerm;31671;48.092;11.842;2022-10-17T11:39:54;29.40;27.89;33.97;;
45964;Laerm;31671;48.092;11.842;2022-10-17T11:42:23;29.52;28.08;39.98;;
45964;Laerm;31671;48.092;11.842;2022-10-17T11:44:51;29.39;28.00;35.33;;
45964;Laerm;31671;48.092;11.842;2022-10-17T11:50:04;29.27;27.79;31.66;;
45964;Laerm;31671;48.092;11.842;2022-10-17T11:55:34;29.62;27.51;34.94;;
45964;Laerm;31671;48.092;11.842;2022-10-17T11:58:05;29.28;27.71;30.97;;
45964;Laerm;31671;48.092;11.842;2022-10-17T12:03:16;29.45;28.07;36.86;;
45964;Laerm;31671;48.092;11.842;2022-10-17T12:08:33;29.36;28.05;30.97;;
45964;Laerm;31671;48.092;11.842;2022-10-17T12:11:26;29.27;27.81;32.07;;
45964;Laerm;31671;48.092;11.842;2022-10-17T12:13:54;29.35;28.02;33.44;;
45964;Laerm;31671;48.092;11.842;2022-10-17T12:18:46;29.24;27.86;32.15;;
45964;Laerm;31671;48.092;11.842;2022-10-17T12:21:12;29.38;27.98;47.61;;
45964;Laerm;31671;48.092;11.842;2022-10-17T12:23:38;29.27;27.91;36.82;;
45964;Laerm;31671;48.092;11.842;2022-10-17T12:26:05;29.26;27.87;30.65;;
45964;Laerm;31671;48.092;11.842;2022-10-17T12:28:44;29.30;27.97;36.38;;
45964;Laerm;31671;48.092;11.842;2022-10-17T12:38:43;29.31;27.86;43.82;;
45964;Laerm;31671;48.092;11.842;2022-10-17T12:41:09;29.31;27.82;30.88;;
45964;Laerm;31671;48.092;11.842;2022-10-17T12:46:02;29.37;27.98;33.59;;
45964;Laerm;31671;48.092;11.842;2022-10-17T12:51:04;29.20;27.68;30.66;;
45964;Laerm;31671;48.092;11.842;2022-10-17T12:54:13;29.23;27.82;30.72;;
45964;Laerm;31671;48.092;11.842;2022-10-17T12:56:20;29.34;27.86;33.95;;
45964;Laerm;31671;48.092;11.842;2022-10-17T12:58:47;29.48;28.07;36.91;;
45964;Laerm;31671;48.092;11.842;2022-10-17T13:01:16;29.36;27.94;33.10;;
45964;Laerm;31671;48.092;11.842;2022-10-17T13:03:43;29.52;28.01;35.04;;
45964;Laerm;31671;48.092;11.842;2022-10-17T13:06:11;29.48;28.06;32.32;;
45964;Laerm;31671;48.092;11.842;2022-10-17T13:08:41;29.22;27.99;31.46;;
45964;Laerm;31671;48.092;11.842;2022-10-17T13:11:08;31.08;28.03;53.60;;
45964;Laerm;31671;48.092;11.842;2022-10-17T13:13:36;29.26;28.06;30.71;;
45964;Laerm;31671;48.092;11.842;2022-10-17T13:16:03;29.37;27.66;34.32;;
45964;Laerm;31671;48.092;11.842;2022-10-17T13:18:29;29.25;28.03;32.44;;
45964;Laerm;31671;48.092;11.842;2022-10-17T13:23:34;30.13;27.87;35.80;;
45964;Laerm;31671;48.092;11.842;2022-10-17T13:26:04;29.43;27.96;35.97;;
45964;Laerm;31671;48.092;11.842;2022-10-17T13:28:29;29.30;28.00;30.97;;
45964;Laerm;31671;48.092;11.842;2022-10-17T13:30:55;29.53;27.78;32.31;;
45964;Laerm;31671;48.092;11.842;2022-10-17T13:33:34;29.27;28.00;33.98;;
45964;Laerm;31671;48.092;11.842;2022-10-17T13:36:01;29.21;27.93;30.74;;
45964;Laerm;31671;48.092;11.842;2022-10-17T13:38:28;29.31;27.84;32.39;;
45964;Laerm;31671;48.092;11.842;2022-10-17T13:40:54;29.27;27.80;31.14;;
45964;Laerm;31671;48.092;11.842;2022-10-17T13:43:20;29.32;27.95;32.05;;
45964;Laerm;31671;48.092;11.842;2022-10-17T13:45:48;29.33;27.96;36.25;;
45964;Laerm;31671;48.092;11.842;2022-10-17T13:48:19;29.24;27.64;31.05;;
45964;Laerm;31671;48.092;11.842;2022-10-17T13:50:46;29.53;27.98;35.07;;
45964;Laerm;31671;48.092;11.842;2022-10-17T13:55:50;29.48;28.06;40.44;;
45964;Laerm;31671;48.092;11.842;2022-10-17T13:58:16;29.32;27.91;36.76;;
45964;Laerm;31671;48.092;11.842;2022-10-17T14:00:45;29.23;27.99;30.66;;
45964;Laerm;31671;48.092;11.842;2022-10-17T14:03:11;29.25;28.03;30.86;;
45964;Laerm;31671;48.092;11.842;2022-10-17T14:08:22;29.35;27.80;32.20;;
45964;Laerm;31671;48.092;11.842;2022-10-17T14:10:48;29.65;28.08;34.39;;
45964;Laerm;31671;48.092;11.842;2022-10-17T14:13:21;29.41;27.64;31.30;;
45964;Laerm;31671;48.092;11.842;2022-10-17T14:15:47;29.25;27.97;32.43;;
45964;Laerm;31671;48.092;11.842;2022-10-17T14:18:15;29.69;28.01;41.97;;
45964;Laerm;31671;48.092;11.842;2022-10-17T14:20:46;31.52;27.89;51.96;;
45964;Laerm;31671;48.092;11.842;2022-10-17T14:23:28;29.79;27.88;40.24;;
45964;Laerm;31671;48.092;11.842;2022-10-17T14:26:14;30.78;27.93;48.56;;
45964;Laerm;31671;48.092;11.842;2022-10-17T14:28:42;31.67;27.73;52.21;;
45964;Laerm;31671;48.092;11.842;2022-10-17T14:33:37;32.18;28.25;49.93;;
45964;Laerm;31671;48.092;11.842;2022-10-17T14:36:02;32.68;28.25;51.60;;
45964;Laerm;31671;48.092;11.842;2022-10-17T14:38:28;32.65;28.19;52.35;;
45964;Laerm;31671;48.092;11.842;2022-10-17T14:40:58;32.08;28.51;51.45;;
45964;Laerm;31671;48.092;11.842;2022-10-17T14:43:25;30.93;28.30;48.06;;
45964;Laerm;31671;48.092;11.842;2022-10-17T14:45:52;31.99;28.65;52.05;;
45964;Laerm;31671;48.092;11.842;2022-10-17T14:48:21;30.96;28.76;47.76;;
45964;Laerm;31671;48.092;11.842;2022-10-17T14:53:31;30.86;28.80;46.59;;
45964;Laerm;31671;48.092;11.842;2022-10-17T14:55:58;30.53;28.54;42.93;;
45964;Laerm;31671;48.092;11.842;2022-10-17T14:58:26;30.86;28.76;45.46;;
45964;Laerm;31671;48.092;11.842;2022-10-17T15:00:52;29.95;28.47;39.01;;
45964;Laerm;31671;48.092;11.842;2022-10-17T15:03:18;29.99;28.48;40.06;;
45964;Laerm;31671;48.092;11.842;2022-10-17T15:05:47;30.11;28.30;41.95;;
45964;Laerm;31671;48.092;11.842;2022-10-17T15:08:14;30.31;28.44;46.27;;
45964;Laerm;31671;48.092;11.842;2022-10-17T15:10:40;30.62;28.51;42.17;;
45964;Laerm;31671;48.092;11.842;2022-10-17T15:13:06;29.86;28.42;31.17;;
45964;Laerm;31671;48.092;11.842;2022-10-17T15:15:32;30.09;28.54;33.20;;
45964;Laerm;31671;48.092;11.842;2022-10-17T15:17:58;30.11;28.67;41.04;;
45964;Laerm;31671;48.092;11.842;2022-10-17T15:20:24;30.65;28.86;43.83;;
45964;Laerm;31671;48.092;11.842;2022-10-17T15:22:51;30.45;28.93;37.98;;
45964;Laerm;31671;48.092;11.842;2022-10-17T15:25:16;33.59;29.24;65.30;;
45964;Laerm;31671;48.092;11.842;2022-10-17T15:27:42;32.85;29.23;54.32;;
45964;Laerm;31671;48.092;11.842;2022-10-17T15:30:27;33.16;29.17;54.28;;